EGVO

RAF Odiham

Airport
ICAO code
EGVO
IATA Code
ODH
Summary
ICAO Region
EUR
ICAO Territory
Location

, England

Serving
Odiham
Elevation
405 ft
Coordinates
51° 14' 3" N , 0° 56' 34" W
Metar
EGVO 270920Z 23004KT 3000 BR OVC002 02/02 Q1022 BECMG 9999 NSW FEW004 RMK AMB BECMG BLU

Runways

Designator Length Width Surface Rops
10/28 1838 43 ASP No/No

Airport map

Aerial View

SKYbrary Partners:

Safety knowledge contributed by: